Milagro, Argentina
Current Conditions -  °F | °C
As of 5:00 AM on Saturday 29 Nov 2014 (Local Time) from SACO Reporting Station
Scattered Clouds Scattered Clouds  
Wind Chill: 68°   Ceiling: Unl
Heat Index: 68°   Visibility: 6mi
Dew Point: 57°   Wind: 9mph
Humidity: 68%   Direction: 360°N
Pressure: 29.68"   Gusts: NA
Location:  31.02°S, 65.98°W
Report Text: SACO 290800Z 36008KT 9999 SCT030 SCT10020/14 Q1005
Loading
Personal Weather Stations






























Interactive Weather Map New forecast layout! Learn more

10-Day Weather Forecast

Advertisements
Track Severe Weather on mobile